Time;durP1;ratioP1;P1;durP2;ratioP2;P2;SDS_P1;SDS_P2;PMS_P1;PMS_P2;Temp;Humidity;BMP_temperature;BMP_pressure;BME280_temperature;BME280_humidity;BME280_pressure;Samples;Min_cycle;Max_cycle;Signal;HPM_P1;HPM_P2
2023/07/21 00:02:15;;;;;;;1.77;1.67;;;15.50;99.90;;;;;;5080874;28;20033;-42
2023/07/21 00:04:42;;;;;;;3.47;1.90;;;15.60;99.90;;;;;;5084571;28;20075;-40
2023/07/21 00:07:07;;;;;;;2.25;2.00;;;15.60;99.90;;;;;;5085021;28;20081;-38
2023/07/21 00:09:33;;;;;;;3.10;2.13;;;15.60;99.90;;;;;;5084964;28;20039;-37
2023/07/21 00:11:59;;;;;;;1.60;1.50;;;15.60;99.90;;;;;;5095515;28;20028;-41
2023/07/21 00:14:24;;;;;;;3.78;1.75;;;15.60;99.90;;;;;;5081668;28;20038;-39
2023/07/21 00:16:53;;;;;;;3.65;2.13;;;15.60;99.90;;;;;;5082432;28;20031;-40
2023/07/21 00:19:19;;;;;;;2.70;1.60;;;15.50;99.90;;;;;;5079074;28;20393;-41
2023/07/21 00:21:45;;;;;;;2.85;1.60;;;15.30;99.90;;;;;;5084037;28;20123;-41
2023/07/21 00:24:11;;;;;;;2.70;1.70;;;15.40;99.90;;;;;;5080269;28;20111;-42
2023/07/21 00:26:37;;;;;;;3.00;1.65;;;15.40;99.90;;;;;;5078581;28;20161;-41
2023/07/21 00:29:03;;;;;;;2.45;1.90;;;15.40;99.90;;;;;;5084329;28;20024;-39
2023/07/21 00:31:29;;;;;;;2.20;2.00;;;15.40;99.90;;;;;;5079689;28;20490;-41
2023/07/21 00:33:55;;;;;;;2.55;1.90;;;15.40;99.90;;;;;;5082425;28;20028;-39
2023/07/21 00:36:20;;;;;;;3.25;1.83;;;15.10;99.90;;;;;;5076187;28;20638;-39
2023/07/21 00:38:47;;;;;;;4.30;1.88;;;15.10;99.90;;;;;;5082027;28;20032;-29
2023/07/21 00:41:15;;;;;;;4.13;1.90;;;15.20;99.90;;;;;;5096808;28;20090;-30
2023/07/21 00:43:41;;;;;;;3.03;1.90;;;15.20;99.90;;;;;;5086570;28;20039;-29
2023/07/21 00:46:08;;;;;;;3.13;1.90;;;15.20;99.90;;;;;;5086653;28;20900;-29
2023/07/21 00:48:34;;;;;;;2.13;1.88;;;15.20;99.90;;;;;;5083238;28;20028;-30
2023/07/21 00:51:00;;;;;;;3.13;1.95;;;15.20;99.90;;;;;;5112820;27;20034;-28
2023/07/21 00:53:26;;;;;;;2.15;1.80;;;15.20;99.90;;;;;;5097717;28;20067;-32
2023/07/21 00:55:52;;;;;;;2.88;1.95;;;15.10;99.90;;;;;;5081445;28;21882;-29
2023/07/21 00:58:18;;;;;;;2.08;1.95;;;15.10;99.90;;;;;;5085020;28;20112;-29
2023/07/21 01:00:46;;;;;;;2.85;1.70;;;15.10;99.90;;;;;;5081862;28;20035;-30
2023/07/21 01:03:13;;;;;;;4.83;1.93;;;15.10;99.90;;;;;;5079038;28;20030;-30
2023/07/21 01:05:41;;;;;;;4.40;1.90;;;15.00;99.90;;;;;;5084107;28;20028;-32
2023/07/21 01:08:08;;;;;;;;;;;14.80;99.90;;;;;;5085414;28;20056;-31
2023/07/21 01:10:35;;;;;;;2.63;1.80;;;14.90;99.90;;;;;;5078902;28;19912;-31
2023/07/21 01:13:02;;;;;;;2.33;1.90;;;14.90;99.90;;;;;;5081721;28;20462;-32
2023/07/21 01:15:30;;;;;;;3.53;1.88;;;14.90;99.90;;;;;;5078279;28;20456;-34
2023/07/21 01:17:58;;;;;;;4.65;2.25;;;14.80;99.90;;;;;;5079969;28;20028;-30
2023/07/21 01:20:27;;;;;;;3.97;2.25;;;14.80;99.90;;;;;;5087801;28;20027;-30
2023/07/21 01:22:57;;;;;;;2.33;1.85;;;14.70;99.90;;;;;;5090826;28;20346;-32
2023/07/21 01:25:24;;;;;;;2.25;1.92;;;14.70;99.90;;;;;;5085604;28;20523;-31
2023/07/21 01:27:53;;;;;;;2.22;1.98;;;14.60;99.90;;;;;;5103544;27;20032;-30
2023/07/21 01:30:20;;;;;;;2.58;1.80;;;14.50;99.90;;;;;;5091953;28;20039;-31
2023/07/21 01:32:48;;;;;;;2.72;1.90;;;14.50;99.90;;;;;;5096206;28;20106;-31
2023/07/21 01:35:17;;;;;;;2.83;2.00;;;14.60;99.90;;;;;;5102884;27;20020;-30
2023/07/21 01:37:44;;;;;;;;;;;14.50;99.90;;;;;;5092498;28;20048;-31
2023/07/21 01:40:12;;;;;;;4.60;2.10;;;14.50;99.90;;;;;;5099343;28;19916;-31
2023/07/21 01:42:39;;;;;;;;;;;14.50;99.90;;;;;;5086063;28;20106;-30
2023/07/21 01:45:07;;;;;;;2.45;1.60;;;14.50;99.90;;;;;;5084663;28;19912;-34
2023/07/21 01:47:34;;;;;;;3.80;2.08;;;14.40;99.90;;;;;;5082775;28;20020;-37
2023/07/21 01:50:00;;;;;;;3.03;2.08;;;14.20;99.90;;;;;;5092909;27;20039;-39
2023/07/21 01:52:31;;;;;;;4.43;1.83;;;14.20;99.90;;;;;;5089207;28;20031;-41
2023/07/21 01:55:07;;;;;;;5.07;2.10;;;14.20;99.90;;;;;;5088365;28;20063;-39
2023/07/21 01:57:38;;;;;;;2.67;1.80;;;14.20;99.90;;;;;;5087496;28;20020;-38
2023/07/21 02:00:11;;;;;;;2.25;1.80;;;14.20;99.90;;;;;;5084194;28;20051;-36
2023/07/21 02:02:40;;;;;;;2.55;1.73;;;14.20;99.90;;;;;;5080622;28;20548;-39
2023/07/21 02:05:06;;;;;;;2.97;2.15;;;14.30;99.90;;;;;;5086152;28;20027;-40
2023/07/21 02:07:32;;;;;;;3.45;2.25;;;14.20;99.90;;;;;;5079751;28;20137;-40
2023/07/21 02:09:58;;;;;;;3.15;2.05;;;14.30;99.90;;;;;;5084196;28;20034;-41
2023/07/21 02:12:24;;;;;;;2.95;1.95;;;14.40;99.90;;;;;;5085257;28;20542;-41
2023/07/21 02:14:49;;;;;;;4.90;1.83;;;14.30;99.90;;;;;;5083221;28;20139;-40
2023/07/21 02:17:15;;;;;;;3.63;1.95;;;14.40;99.90;;;;;;5083089;28;20036;-39
2023/07/21 02:19:41;;;;;;;1.88;1.77;;;14.30;99.90;;;;;;5080018;28;20016;-41
2023/07/21 02:22:07;;;;;;;3.08;1.92;;;14.30;99.90;;;;;;5085759;28;20375;-40
2023/07/21 02:24:32;;;;;;;3.22;2.08;;;14.30;99.90;;;;;;5082837;28;20056;-38
2023/07/21 02:26:59;;;;;;;3.25;2.10;;;14.40;99.90;;;;;;5080329;28;20031;-41
2023/07/21 02:29:25;;;;;;;2.53;2.25;;;14.40;99.90;;;;;;5085584;28;20107;-41
2023/07/21 02:31:50;;;;;;;4.32;2.15;;;14.40;99.90;;;;;;5068767;28;20183;-48
2023/07/21 02:34:16;;;;;;;3.45;2.20;;;14.40;99.90;;;;;;5065594;28;20457;-40
2023/07/21 02:36:42;;;;;;;3.78;2.00;;;14.40;99.90;;;;;;5063502;28;20033;-35
2023/07/21 02:39:08;;;;;;;2.28;2.05;;;14.40;99.90;;;;;;5057721;28;20223;-41
2023/07/21 02:41:33;;;;;;;2.90;1.92;;;14.30;99.90;;;;;;5064700;28;20118;-39
2023/07/21 02:43:59;;;;;;;2.85;2.17;;;14.40;99.90;;;;;;5058340;28;20016;-41
2023/07/21 02:46:25;;;;;;;4.00;2.05;;;14.40;99.90;;;;;;5065058;28;20039;-40
2023/07/21 02:48:51;;;;;;;2.58;2.25;;;14.40;99.90;;;;;;5067051;28;20025;-33
2023/07/21 02:51:16;;;;;;;5.00;2.33;;;14.40;99.90;;;;;;5061226;28;20041;-33
2023/07/21 02:53:42;;;;;;;3.28;2.20;;;14.50;99.90;;;;;;5060508;28;20398;-36
2023/07/21 02:56:08;;;;;;;2.47;1.85;;;14.40;99.90;;;;;;5066667;28;20136;-32
2023/07/21 02:58:34;;;;;;;2.92;2.00;;;14.30;99.90;;;;;;5060571;28;20058;-32
2023/07/21 03:01:03;;;;;;;4.10;1.85;;;14.20;99.90;;;;;;5088102;27;20068;-33
2023/07/21 03:03:32;;;;;;;2.20;2.00;;;14.20;99.90;;;;;;5094948;27;20067;-32
2023/07/21 03:05:58;;;;;;;1.95;1.75;;;14.30;99.90;;;;;;5065464;28;20025;-34
2023/07/21 03:08:28;;;;;;;3.58;2.70;;;14.30;99.90;;;;;;5067863;28;20043;-32
2023/07/21 03:10:55;;;;;;;3.35;2.05;;;14.30;99.90;;;;;;5063572;28;20028;-32
2023/07/21 03:13:22;;;;;;;1.90;1.75;;;14.30;99.90;;;;;;5062699;28;20055;-36
2023/07/21 03:15:47;;;;;;;3.63;2.40;;;14.40;99.90;;;;;;5063417;28;20542;-31
2023/07/21 03:18:13;;;;;;;3.72;1.92;;;14.30;99.90;;;;;;5073840;28;20036;-34
2023/07/21 03:20:39;;;;;;;2.80;2.10;;;14.30;99.90;;;;;;5061664;28;20056;-33
2023/07/21 03:23:07;;;;;;;4.70;2.28;;;14.30;99.90;;;;;;5061905;28;20020;-34
2023/07/21 03:25:33;;;;;;;5.53;2.00;;;14.40;99.90;;;;;;5063061;28;20025;-32
2023/07/21 03:27:59;;;;;;;3.47;2.30;;;14.40;99.90;;;;;;5069924;28;20510;-34
2023/07/21 03:30:24;;;;;;;4.68;2.25;;;14.40;99.90;;;;;;5060496;28;20047;-32
2023/07/21 03:32:50;;;;;;;3.35;2.20;;;14.40;99.90;;;;;;5072533;28;20083;-35
2023/07/21 03:35:16;;;;;;;3.63;2.03;;;14.30;99.90;;;;;;5061808;28;20036;-31
2023/07/21 03:37:42;;;;;;;6.57;2.08;;;14.40;99.90;;;;;;5058104;28;20127;-33
2023/07/21 03:40:09;;;;;;;2.60;2.13;;;14.40;99.90;;;;;;5074409;28;20043;-32
2023/07/21 03:42:35;;;;;;;3.20;2.13;;;14.40;99.90;;;;;;5064641;28;20694;-32
2023/07/21 03:45:05;;;;;;;4.18;1.90;;;14.40;99.90;;;;;;5066945;28;20090;-34
2023/07/21 03:47:34;;;;;;;3.05;2.20;;;14.30;99.90;;;;;;5060929;28;20029;-32
2023/07/21 03:50:00;;;;;;;2.60;2.10;;;14.30;99.90;;;;;;5076283;28;20082;-32
2023/07/21 03:52:27;;;;;;;4.05;2.05;;;14.20;99.90;;;;;;5062140;28;20028;-34
2023/07/21 03:54:53;;;;;;;3.72;2.13;;;14.10;99.90;;;;;;5059652;28;20218;-36
2023/07/21 03:57:20;;;;;;;3.10;2.65;;;14.20;99.90;;;;;;5061152;28;20594;-33
2023/07/21 03:59:47;;;;;;;4.45;2.20;;;14.30;99.90;;;;;;5077536;28;20127;-31
2023/07/21 04:02:12;;;;;;;3.42;2.25;;;14.30;99.90;;;;;;5062797;28;20471;-31
2023/07/21 04:04:38;;;;;;;5.53;2.30;;;14.20;99.90;;;;;;5067103;28;20103;-30
2023/07/21 04:07:05;;;;;;;3.10;2.20;;;14.10;99.90;;;;;;5065304;28;20382;-31
2023/07/21 04:09:34;;;;;;;3.28;2.10;;;14.20;99.90;;;;;;5067436;28;20879;-41
2023/07/21 04:11:59;;;;;;;2.83;2.40;;;14.20;99.90;;;;;;5075171;28;20048;-38
2023/07/21 04:14:25;;;;;;;4.45;2.65;;;14.20;99.90;;;;;;5061876;28;20435;-41
2023/07/21 04:16:51;;;;;;;5.07;2.30;;;14.20;99.90;;;;;;5058440;28;20108;-39
2023/07/21 04:19:17;;;;;;;3.13;2.42;;;14.20;99.90;;;;;;5063184;28;20035;-41
2023/07/21 04:21:43;;;;;;;3.95;2.33;;;14.20;99.90;;;;;;5064274;28;20440;-40
2023/07/21 04:24:10;;;;;;;2.95;2.17;;;14.20;99.90;;;;;;5061819;28;20561;-41
2023/07/21 04:26:36;;;;;;;2.10;1.90;;;14.30;99.90;;;;;;5054781;28;20024;-40
2023/07/21 04:29:02;;;;;;;2.70;2.25;;;14.40;99.90;;;;;;5058932;28;20139;-41
2023/07/21 04:31:28;;;;;;;4.18;2.30;;;14.50;99.90;;;;;;5058781;28;20108;-39
2023/07/21 04:33:58;;;;;;;2.88;1.90;;;14.60;99.90;;;;;;5072497;28;20029;-41
2023/07/21 04:36:24;;;;;;;4.43;2.30;;;14.70;99.90;;;;;;5065635;28;20624;-41
2023/07/21 04:38:51;;;;;;;3.03;2.20;;;14.70;99.90;;;;;;5079749;28;20062;-41
2023/07/21 04:41:16;;;;;;;4.85;2.55;;;14.60;99.90;;;;;;5062808;28;20556;-40
2023/07/21 04:43:45;;;;;;;3.28;2.42;;;14.60;99.90;;;;;;5059063;28;20025;-39
2023/07/21 04:46:13;;;;;;;3.50;2.30;;;14.60;99.90;;;;;;5062379;28;20028;-40
2023/07/21 04:48:39;;;;;;;3.92;2.30;;;14.60;99.90;;;;;;5063113;28;20029;-37
2023/07/21 04:51:05;;;;;;;2.63;2.40;;;14.60;99.90;;;;;;5059000;28;20032;-33
2023/07/21 04:53:30;;;;;;;5.72;2.33;;;14.50;99.90;;;;;;5055147;28;20024;-34
2023/07/21 04:55:58;;;;;;;3.10;2.40;;;14.50;99.90;;;;;;5064400;28;20036;-34
2023/07/21 04:58:24;;;;;;;3.05;2.40;;;14.50;99.90;;;;;;5067385;28;20186;-33
2023/07/21 05:00:51;;;;;;;3.00;2.70;;;14.60;99.90;;;;;;5060785;28;20501;-33
2023/07/21 05:03:16;;;;;;;5.22;2.70;;;14.60;99.90;;;;;;5063901;28;20043;-33
2023/07/21 05:05:45;;;;;;;4.65;2.97;;;14.70;99.90;;;;;;5060914;28;20025;-33
2023/07/21 05:08:11;;;;;;;4.07;2.65;;;14.80;99.90;;;;;;5075688;28;20033;-31
2023/07/21 05:10:36;;;;;;;3.03;2.47;;;14.80;99.90;;;;;;5067142;28;20493;-31
2023/07/21 05:13:06;;;;;;;4.38;2.80;;;14.90;99.90;;;;;;5065694;28;20185;-34
2023/07/21 05:15:35;;;;;;;5.18;2.80;;;14.90;99.90;;;;;;5063633;28;20016;-32
2023/07/21 05:18:02;;;;;;;3.95;2.63;;;14.90;99.90;;;;;;5065721;28;20032;-30
2023/07/21 05:20:27;;;;;;;4.20;2.92;;;14.90;99.90;;;;;;5061723;28;20063;-41
2023/07/21 05:22:53;;;;;;;3.95;2.67;;;15.00;99.90;;;;;;5057126;28;20131;-40
2023/07/21 05:25:19;;;;;;;4.10;2.85;;;15.10;99.90;;;;;;5062983;28;20017;-40
2023/07/21 05:27:49;;;;;;;3.42;2.60;;;15.10;99.90;;;;;;5060215;28;20025;-42
2023/07/21 05:30:15;;;;;;;4.47;2.80;;;15.20;99.90;;;;;;5059779;28;20029;-40
2023/07/21 05:32:41;;;;;;;4.35;3.20;;;15.30;99.90;;;;;;5059062;28;20040;-41
2023/07/21 05:35:08;;;;;;;4.97;2.90;;;15.30;99.90;;;;;;5063880;28;20021;-41
2023/07/21 05:37:33;;;;;;;5.60;2.95;;;15.50;99.90;;;;;;5078979;28;20073;-40
2023/07/21 05:39:59;;;;;;;5.03;2.95;;;15.60;99.90;;;;;;5058773;28;21048;-41
2023/07/21 05:42:25;;;;;;;4.25;2.85;;;15.80;99.90;;;;;;5060702;28;20075;-39
2023/07/21 05:44:50;;;;;;;5.18;2.72;;;16.00;99.90;;;;;;5055826;28;20033;-41
2023/07/21 05:47:16;;;;;;;5.80;2.90;;;16.10;99.90;;;;;;5062355;28;20028;-40
2023/07/21 05:49:42;;;;;;;3.55;2.78;;;16.00;99.90;;;;;;5059992;28;20032;-40
2023/07/21 05:52:07;;;;;;;4.40;3.03;;;16.00;99.90;;;;;;5063418;28;20031;-41
2023/07/21 05:54:33;;;;;;;4.28;3.00;;;16.00;99.90;;;;;;5062467;28;20426;-37
2023/07/21 05:56:59;;;;;;;6.13;3.00;;;16.00;99.90;;;;;;5058538;28;20040;-38
2023/07/21 05:59:24;;;;;;;4.40;3.05;;;16.10;99.90;;;;;;5059018;28;20033;-39
2023/07/21 06:01:51;;;;;;;5.20;2.97;;;16.40;99.90;;;;;;5058709;28;20044;-39
2023/07/21 06:04:17;;;;;;;3.20;2.88;;;16.40;99.90;;;;;;5073770;28;20025;-37
2023/07/21 06:06:43;;;;;;;4.43;3.10;;;16.50;99.90;;;;;;5062560;28;20049;-41
2023/07/21 06:09:08;;;;;;;4.72;3.20;;;16.50;99.90;;;;;;5067398;28;20051;-38
2023/07/21 06:11:34;;;;;;;3.25;2.75;;;16.70;99.90;;;;;;5066564;28;20394;-36
2023/07/21 06:14:00;;;;;;;4.30;3.03;;;17.00;99.90;;;;;;5064461;28;20058;-41
2023/07/21 06:16:26;;;;;;;6.55;2.95;;;17.20;99.90;;;;;;5063727;28;20577;-40
2023/07/21 06:18:52;;;;;;;5.93;3.30;;;17.20;99.90;;;;;;5067546;28;20025;-39
2023/07/21 06:21:19;;;;;;;6.03;2.92;;;17.30;99.90;;;;;;5061407;28;20059;-41
2023/07/21 06:23:45;;;;;;;3.88;2.90;;;17.30;99.90;;;;;;5058993;28;20028;-39
2023/07/21 06:26:11;;;;;;;3.42;2.60;;;17.50;99.90;;;;;;5059055;28;20361;-40
2023/07/21 06:28:37;;;;;;;4.53;2.67;;;17.60;99.90;;;;;;5064429;28;20536;-39
2023/07/21 06:31:02;;;;;;;6.18;2.45;;;17.90;99.90;;;;;;5062728;28;20020;-39
2023/07/21 06:33:28;;;;;;;4.35;2.80;;;18.10;99.90;;;;;;5060503;28;20044;-37
2023/07/21 06:35:54;;;;;;;4.80;2.28;;;18.40;99.90;;;;;;5063530;28;20028;-36
2023/07/21 06:38:19;;;;;;;3.60;2.17;;;18.40;99.90;;;;;;5060663;28;20497;-42
2023/07/21 06:40:45;;;;;;;5.40;2.47;;;18.60;99.90;;;;;;5061899;28;20033;-39
2023/07/21 06:43:11;;;;;;;2.83;2.15;;;18.70;99.90;;;;;;5061109;28;20863;-38
2023/07/21 06:45:39;;;;;;;2.65;2.25;;;18.80;99.90;;;;;;5063553;28;20498;-37
2023/07/21 06:48:06;;;;;;;;;;;18.90;99.90;;;;;;5065960;28;20017;-40
2023/07/21 06:50:32;;;;;;;4.47;2.28;;;19.00;99.90;;;;;;5060765;28;19912;-37
2023/07/21 06:52:58;;;;;;;3.53;2.40;;;19.10;99.90;;;;;;5060361;28;20016;-42
2023/07/21 06:55:24;;;;;;;2.88;2.58;;;19.10;99.90;;;;;;5064045;28;20049;-41
2023/07/21 06:57:50;;;;;;;4.50;2.47;;;19.10;99.90;;;;;;5060040;28;20021;-42
2023/07/21 07:00:16;;;;;;;3.60;2.50;;;19.20;99.90;;;;;;5058842;28;20040;-41
2023/07/21 07:02:47;;;;;;;3.42;2.50;;;19.30;99.90;;;;;;5062153;28;20115;-39
2023/07/21 07:05:14;;;;;;;5.28;2.30;;;19.50;99.90;;;;;;5064641;28;20163;-42
2023/07/21 07:07:39;;;;;;;6.47;2.50;;;19.80;99.90;;;;;;5064871;28;20051;-42
2023/07/21 07:10:06;;;;;;;4.80;2.35;;;19.80;99.90;;;;;;5063789;28;20021;-39
2023/07/21 07:12:32;;;;;;;3.95;2.50;;;19.90;99.90;;;;;;5081040;28;20032;-40
2023/07/21 07:14:58;;;;;;;4.13;2.80;;;20.00;99.90;;;;;;5062763;28;20051;-42
2023/07/21 07:17:24;;;;;;;4.07;2.65;;;20.00;99.90;;;;;;5065015;28;20456;-42
2023/07/21 07:19:50;;;;;;;5.35;2.63;;;20.00;99.90;;;;;;5064983;28;20111;-41
2023/07/21 07:22:17;;;;;;;3.40;2.28;;;20.10;99.90;;;;;;5082272;28;20036;-41
2023/07/21 07:24:43;;;;;;;5.03;2.70;;;20.30;99.90;;;;;;5058343;28;20032;-34
2023/07/21 07:27:09;;;;;;;4.22;2.53;;;20.30;99.90;;;;;;5062180;28;20097;-41
2023/07/21 07:29:35;;;;;;;4.38;2.97;;;20.30;99.90;;;;;;5076737;28;20025;-38
2023/07/21 07:32:01;;;;;;;3.78;2.92;;;20.40;99.90;;;;;;5073043;28;20591;-36
2023/07/21 07:34:27;;;;;;;4.20;2.28;;;20.50;99.90;;;;;;5086175;28;20016;-40
2023/07/21 07:36:53;;;;;;;3.70;2.50;;;20.70;99.90;;;;;;5073793;28;20024;-41
2023/07/21 07:39:19;;;;;;;4.95;2.58;;;20.70;99.90;;;;;;5087295;28;20367;-37
2023/07/21 07:41:45;;;;;;;3.63;2.28;;;20.60;99.90;;;;;;5086760;28;20409;-32
2023/07/21 07:44:11;;;;;;;3.22;2.40;;;20.70;99.90;;;;;;5081714;28;20477;-32
2023/07/21 07:46:37;;;;;;;3.28;2.13;;;20.70;99.90;;;;;;5082486;28;20401;-32
2023/07/21 07:49:03;;;;;;;2.40;2.17;;;20.70;99.90;;;;;;5083844;28;20024;-31
2023/07/21 07:51:29;;;;;;;3.90;2.30;;;20.70;99.90;;;;;;5083693;28;20503;-31
2023/07/21 07:53:55;;;;;;;4.22;2.08;;;20.60;99.90;;;;;;5085068;28;20405;-33
2023/07/21 07:56:22;;;;;;;4.05;1.92;;;20.50;99.90;;;;;;5082767;28;20031;-31
2023/07/21 07:58:48;;;;;;;2.33;1.90;;;20.50;99.90;;;;;;5081659;28;20031;-31
2023/07/21 08:01:14;;;;;;;2.30;2.10;;;20.70;99.90;;;;;;5080591;28;20418;-33
2023/07/21 08:03:43;;;;;;;4.45;2.17;;;20.80;99.90;;;;;;5064401;28;20406;-37
2023/07/21 08:06:12;;;;;;;2.50;2.30;;;20.80;99.90;;;;;;5066855;28;20055;-32
2023/07/21 08:08:39;;;;;;;3.85;1.90;;;20.70;99.90;;;;;;5063054;28;20097;-34
2023/07/21 08:11:06;;;;;;;1.90;1.73;;;20.70;99.90;;;;;;5062703;28;20423;-33
2023/07/21 08:13:32;;;;;;;5.20;2.70;;;20.60;99.90;;;;;;5062193;28;20103;-31
2023/07/21 08:15:57;;;;;;;3.47;1.95;;;20.70;99.90;;;;;;5066634;28;20081;-31
2023/07/21 08:18:23;;;;;;;3.45;2.33;;;20.70;99.90;;;;;;5069398;28;20443;-32
2023/07/21 08:20:50;;;;;;;3.25;2.17;;;20.60;99.90;;;;;;5079424;28;20028;-31
2023/07/21 08:23:16;;;;;;;2.28;1.90;;;20.60;99.90;;;;;;5081466;28;20386;-31
2023/07/21 08:25:42;;;;;;;2.95;2.05;;;20.70;99.90;;;;;;5065640;28;20044;-34
2023/07/21 08:28:08;;;;;;;2.45;2.00;;;20.80;99.90;;;;;;5065151;28;20481;-31
2023/07/21 08:30:35;;;;;;;3.72;2.08;;;20.90;99.90;;;;;;5083007;28;20068;-31
2023/07/21 08:33:02;;;;;;;2.05;1.67;;;20.90;99.90;;;;;;5065727;28;20222;-33
2023/07/21 08:35:28;;;;;;;3.95;2.13;;;21.00;99.90;;;;;;5061797;28;20028;-31
2023/07/21 08:37:56;;;;;;;3.80;1.92;;;21.00;99.90;;;;;;5062815;28;20024;-31
2023/07/21 08:40:24;;;;;;;3.80;2.15;;;21.00;99.90;;;;;;5060499;28;20043;-41
2023/07/21 08:42:50;;;;;;;3.72;2.20;;;21.00;99.90;;;;;;5058649;28;20230;-42
2023/07/21 08:45:18;;;;;;;2.25;1.75;;;21.00;99.90;;;;;;5059895;28;20592;-39
2023/07/21 08:47:43;;;;;;;3.47;2.20;;;21.00;99.90;;;;;;5060646;28;20039;-42
2023/07/21 08:50:10;;;;;;;3.58;1.80;;;21.10;99.90;;;;;;5056865;28;20760;-33
2023/07/21 08:52:35;;;;;;;4.57;2.40;;;21.30;99.90;;;;;;5056034;28;20043;-33
2023/07/21 08:55:01;;;;;;;2.50;1.75;;;21.30;99.90;;;;;;5072047;28;20040;-33
2023/07/21 08:57:27;;;;;;;2.65;1.90;;;21.40;99.90;;;;;;5059105;28;20082;-35
2023/07/21 08:59:56;;;;;;;3.55;2.00;;;21.50;99.90;;;;;;5090538;28;20021;-33
2023/07/21 09:02:38;;;;;;;3.33;1.88;;;21.50;99.90;;;;;;5057411;28;20044;-36
2023/07/21 09:05:04;;;;;;;2.97;1.63;;;21.60;99.90;;;;;;5069588;28;20029;-33
2023/07/21 09:07:31;;;;;;;4.80;2.10;;;21.70;99.90;;;;;;5062479;28;20036;-33
2023/07/21 09:09:57;;;;;;;2.92;1.73;;;21.90;99.90;;;;;;5062101;28;20032;-34
2023/07/21 09:12:34;;;;;;;2.38;1.38;;;21.90;99.90;;;;;;5061869;28;20035;-35
2023/07/21 09:15:08;;;;;;;3.20;1.80;;;21.80;99.90;;;;;;5060483;28;20153;-34
2023/07/21 09:17:34;;;;;;;2.67;1.80;;;22.10;99.90;;;;;;5061238;28;20756;-35
2023/07/21 09:20:07;;;;;;;3.83;1.83;;;22.20;99.90;;;;;;5056784;28;20056;-35
2023/07/21 09:22:32;;;;;;;2.83;1.75;;;22.30;99.90;;;;;;5073938;28;20036;-32
2023/07/21 09:24:58;;;;;;;2.55;1.63;;;22.60;99.90;;;;;;5056007;28;20033;-35
2023/07/21 09:27:24;;;;;;;4.30;1.90;;;22.90;99.90;;;;;;5061658;28;20078;-33
2023/07/21 09:29:59;;;;;;;3.15;1.90;;;22.80;99.90;;;;;;5062574;28;20036;-33
2023/07/21 09:32:25;;;;;;;3.78;1.70;;;23.00;99.90;;;;;;5060918;28;20182;-35
2023/07/21 09:35:04;;;;;;;3.30;2.03;;;23.30;99.90;;;;;;5058773;28;20107;-35
2023/07/21 09:37:32;;;;;;;4.28;1.67;;;23.70;99.90;;;;;;5073306;28;20029;-32
2023/07/21 09:40:06;;;;;;;2.45;1.67;;;23.90;99.90;;;;;;5059178;28;20024;-32
2023/07/21 09:42:32;;;;;;;1.98;1.60;;;24.30;99.90;;;;;;5080482;28;20028;-33
2023/07/21 09:44:58;;;;;;;3.47;1.60;;;24.70;99.90;;;;;;5068417;28;20024;-32
2023/07/21 09:47:25;;;;;;;3.53;1.80;;;24.90;99.90;;;;;;5060805;28;20024;-33
2023/07/21 09:49:54;;;;;;;2.75;1.80;;;25.20;99.90;;;;;;5063940;28;20264;-34
2023/07/21 09:52:21;;;;;;;2.92;1.60;;;25.50;99.90;;;;;;5080915;28;20027;-32
2023/07/21 09:55:09;;;;;;;3.15;1.80;;;25.60;99.90;;;;;;5066104;28;20415;-33
2023/07/21 09:57:44;;;;;;;2.50;1.70;;;25.80;99.90;;;;;;5062619;28;20021;-37
2023/07/21 10:00:14;;;;;;;3.90;1.80;;;26.10;99.90;;;;;;5080563;28;20036;-34
2023/07/21 10:02:50;;;;;;;1.83;1.60;;;26.10;99.90;;;;;;5061940;28;20462;-31
2023/07/21 10:05:16;;;;;;;2.65;1.33;;;26.30;99.90;;;;;;5060536;28;20094;-33
2023/07/21 10:07:45;;;;;;;2.97;1.60;;;25.80;99.90;;;;;;5084761;28;20036;-33
2023/07/21 10:10:12;;;;;;;3.67;1.80;;;25.20;99.90;;;;;;5066922;28;20024;-33
2023/07/21 10:12:42;;;;;;;2.73;1.47;;;25.40;99.90;;;;;;5069604;28;20017;-30
2023/07/21 10:15:16;;;;;;;2.38;1.65;;;25.50;99.90;;;;;;5097627;28;20086;-30
2023/07/21 10:18:07;;;;;;;2.58;1.67;;;25.80;99.90;;;;;;5079186;28;20075;-34
2023/07/21 10:20:49;;;;;;;2.58;1.65;;;26.10;99.90;;;;;;5062235;28;20656;-31
2023/07/21 10:23:29;;;;;;;1.80;1.42;;;26.20;99.90;;;;;;5057679;28;20464;-31
2023/07/21 10:26:00;;;;;;;2.03;1.65;;;26.10;99.90;;;;;;5084610;28;20548;-32
2023/07/21 10:28:43;;;;;;;2.33;1.50;;;25.60;99.90;;;;;;5061665;28;20060;-31
2023/07/21 10:31:24;;;;;;;1.92;1.52;;;25.80;99.90;;;;;;5060492;28;20047;-31
2023/07/21 10:34:13;;;;;;;2.95;1.45;;;25.90;99.90;;;;;;5078288;28;20036;-33
2023/07/21 10:36:52;;;;;;;1.67;1.58;;;26.60;99.90;;;;;;5059695;28;20040;-32
2023/07/21 10:39:20;;;;;;;2.90;1.58;;;26.90;99.90;;;;;;5064034;28;20036;-34
2023/07/21 10:41:47;;;;;;;2.38;1.55;;;26.70;99.90;;;;;;5079206;28;20226;-32
2023/07/21 10:44:13;;;;;;;;;;;26.70;99.90;;;;;;5082579;28;20109;-31
2023/07/21 10:46:43;;;;;;;1.92;1.50;;;26.50;99.90;;;;;;5068092;28;19991;-34
2023/07/21 10:49:10;;;;;;;2.58;1.42;;;26.30;99.90;;;;;;5064169;28;20021;-31
2023/07/21 10:51:39;;;;;;;3.55;1.77;;;26.50;99.90;;;;;;5064739;28;20029;-32
2023/07/21 10:54:05;;;;;;;1.85;1.42;;;26.30;99.90;;;;;;5066851;28;20078;-31
2023/07/21 10:56:42;;;;;;;1.95;1.25;;;26.30;99.90;;;;;;5063669;28;20025;-41
2023/07/21 10:59:10;;;;;;;1.48;1.13;;;26.70;99.90;;;;;;5057446;28;20915;-31
2023/07/21 11:01:50;;;;;;;4.18;1.83;;;26.90;99.90;;;;;;5058207;28;20043;-31
2023/07/21 11:04:18;;;;;;;4.90;1.65;;;26.90;99.90;;;;;;5064223;28;20040;-31
2023/07/21 11:06:48;;;;;;;;;;;26.60;99.90;;;;;;5065205;28;20024;-32
2023/07/21 11:09:16;;;;;;;3.30;1.63;;;26.40;99.90;;;;;;5062761;28;20400;-40
2023/07/21 11:11:43;;;;;;;;;;;26.00;99.90;;;;;;5078083;28;20025;-40
2023/07/21 11:14:13;;;;;;;3.05;1.80;;;26.20;99.90;;;;;;5058135;28;19912;-41
2023/07/21 11:17:01;;;;;;;4.90;2.50;;;26.30;99.90;;;;;;5054507;28;20033;-40
2023/07/21 11:19:29;;;;;;;4.43;2.22;;;25.90;99.90;;;;;;5061544;28;20025;-42
2023/07/21 11:21:55;;;;;;;2.15;1.90;;;25.70;99.90;;;;;;5078630;28;20029;-43
2023/07/21 11:24:39;;;;;;;9.18;3.10;;;25.60;99.90;;;;;;5062721;28;20466;-41
2023/07/21 11:27:07;;;;;;;5.35;1.95;;;25.50;99.90;;;;;;5059208;28;20024;-43
2023/07/21 11:29:39;;;;;;;3.95;1.55;;;25.50;99.90;;;;;;5061298;28;20032;-39
2023/07/21 11:32:18;;;;;;;1.73;1.35;;;25.40;99.90;;;;;;5059540;28;20032;-41
2023/07/21 11:34:45;;;;;;;1.73;1.40;;;25.80;99.90;;;;;;5074463;28;20794;-40
2023/07/21 11:37:14;;;;;;;1.90;1.60;;;26.20;99.90;;;;;;5065615;28;20344;-39
2023/07/21 11:39:40;;;;;;;2.95;2.10;;;26.20;99.90;;;;;;5058754;28;20100;-41
2023/07/21 11:42:08;;;;;;;2.65;1.50;;;25.70;99.90;;;;;;5077954;28;20588;-40
2023/07/21 11:44:35;;;;;;;2.78;1.80;;;25.30;99.90;;;;;;5062985;28;20020;-41
2023/07/21 11:47:09;;;;;;;2.30;1.80;;;25.10;99.90;;;;;;5059555;28;20056;-41
2023/07/21 11:49:42;;;;;;;3.22;1.55;;;24.70;99.90;;;;;;5076341;28;20082;-41
2023/07/21 11:52:09;;;;;;;4.65;1.60;;;24.70;99.90;;;;;;5057543;28;20159;-41
2023/07/21 11:54:43;;;;;;;8.27;1.80;;;25.10;99.90;;;;;;5060980;28;20470;-39
2023/07/21 11:57:09;;;;;;;1.65;1.52;;;25.80;99.90;;;;;;5056536;28;20062;-36
2023/07/21 11:59:35;;;;;;;4.85;1.92;;;25.90;99.90;;;;;;5065966;28;20115;-39
2023/07/21 12:02:06;;;;;;;1.90;1.52;;;25.10;99.90;;;;;;5074328;28;20051;-40
2023/07/21 12:04:33;;;;;;;2.20;1.75;;;25.10;99.90;;;;;;5092771;27;20028;-35
2023/07/21 12:07:00;;;;;;;3.17;2.00;;;25.50;99.90;;;;;;5077480;28;20711;-40
2023/07/21 12:09:28;;;;;;;2.15;1.65;;;25.30;99.90;;;;;;5080061;28;20034;-31
2023/07/21 12:11:55;;;;;;;2.28;1.85;;;25.10;99.90;;;;;;5086122;28;20103;-31
2023/07/21 12:14:23;;;;;;;6.35;2.35;;;24.70;99.90;;;;;;5080839;28;20037;-32
2023/07/21 12:16:52;;;;;;;3.33;2.03;;;24.50;99.90;;;;;;5094295;28;20028;-31
2023/07/21 12:19:18;;;;;;;1.98;1.70;;;24.40;99.90;;;;;;5080404;28;20086;-32
2023/07/21 12:21:43;;;;;;;5.50;2.35;;;24.50;99.90;;;;;;5091712;28;20037;-41
2023/07/21 12:24:09;;;;;;;2.58;2.03;;;24.70;99.90;;;;;;5078609;28;20016;-40
2023/07/21 12:26:35;;;;;;;1.73;1.50;;;24.90;99.90;;;;;;5083961;28;20081;-41
2023/07/21 12:29:01;;;;;;;1.63;1.50;;;25.00;99.90;;;;;;5079545;28;20028;-41
2023/07/21 12:31:26;;;;;;;3.30;1.77;;;25.30;99.90;;;;;;5073141;28;20036;-41
2023/07/21 12:33:52;;;;;;;4.63;1.92;;;25.20;99.90;;;;;;5087134;27;20360;-40
2023/07/21 12:36:19;;;;;;;1.90;1.80;;;25.10;99.90;;;;;;5059585;28;20135;-34
2023/07/21 12:38:46;;;;;;;2.65;1.80;;;24.90;99.90;;;;;;5061167;28;20031;-40
2023/07/21 12:41:13;;;;;;;3.35;1.60;;;25.00;99.90;;;;;;5071104;28;20031;-41
2023/07/21 12:43:38;;;;;;;2.83;1.60;;;25.20;99.90;;;;;;5056415;28;20128;-39
2023/07/21 12:46:05;;;;;;;16.60;5.75;;;25.50;99.90;;;;;;5060564;28;20119;-41
2023/07/21 12:48:32;;;;;;;11.27;3.85;;;25.60;99.90;;;;;;5060643;28;20020;-39
2023/07/21 12:50:58;;;;;;;4.78;1.80;;;26.00;99.90;;;;;;5061247;28;20024;-40